Time;durP1;ratioP1;P1;durP2;ratioP2;P2;SDS_P1;SDS_P2;PMS_P1;PMS_P2;Temp;Humidity;BMP_temperature;BMP_pressure;BME280_temperature;BME280_humidity;BME280_pressure;Samples;Min_cycle;Max_cycle;Signal;HPM_P1;HPM_P2
2023/12/26 00:01:30;;;;;;;3.10;3.00;;;11.40;99.90;;;;;;5052807;28;20707;-72
2023/12/26 00:03:56;;;;;;;3.10;2.90;;;11.40;99.90;;;;;;5051162;28;20521;-71
2023/12/26 00:06:22;;;;;;;3.37;3.27;;;11.40;99.90;;;;;;5051878;28;20248;-73
2023/12/26 00:08:48;;;;;;;3.10;3.00;;;11.40;99.90;;;;;;5034979;28;20657;-71
2023/12/26 00:11:15;;;;;;;3.37;2.83;;;11.40;99.90;;;;;;5052728;28;20638;-71
2023/12/26 00:13:40;;;;;;;4.10;3.90;;;11.40;99.90;;;;;;5052389;28;20202;-72
2023/12/26 00:16:07;;;;;;;2.90;2.80;;;11.40;99.90;;;;;;5052561;28;20560;-71
2023/12/26 00:18:32;;;;;;;3.00;2.90;;;11.50;99.90;;;;;;5034547;28;20178;-70
2023/12/26 00:20:58;;;;;;;2.90;2.80;;;11.50;99.90;;;;;;5052377;28;20176;-70
2023/12/26 00:23:23;;;;;;;2.80;2.70;;;11.50;99.90;;;;;;5052410;28;20263;-72
2023/12/26 00:25:49;;;;;;;3.27;3.07;;;11.50;99.90;;;;;;5052180;28;20187;-72
2023/12/26 00:28:17;;;;;;;4.03;3.83;;;11.40;99.90;;;;;;5052127;28;20179;-71
2023/12/26 00:30:43;;;;;;;3.20;3.03;;;11.40;99.90;;;;;;5034428;28;20756;-71
2023/12/26 00:33:08;;;;;;;3.10;3.00;;;11.40;99.90;;;;;;5052214;28;20171;-71
2023/12/26 00:35:34;;;;;;;3.00;2.90;;;11.30;99.90;;;;;;5051877;28;20342;-71
2023/12/26 00:38:01;;;;;;;3.10;2.90;;;11.30;99.90;;;;;;5052154;28;20731;-70
2023/12/26 00:40:27;;;;;;;3.27;3.00;;;11.40;99.90;;;;;;5052033;28;20328;-72
2023/12/26 00:42:52;;;;;;;3.40;3.10;;;11.40;99.90;;;;;;5051969;28;20181;-71
2023/12/26 00:45:18;;;;;;;3.70;3.50;;;11.40;99.90;;;;;;5051688;28;20205;-70
2023/12/26 00:47:44;;;;;;;3.50;3.40;;;11.40;99.90;;;;;;5051955;28;20174;-72
2023/12/26 00:50:11;;;;;;;3.20;3.00;;;11.40;99.90;;;;;;5051955;28;20560;-71
2023/12/26 00:52:38;;;;;;;3.10;2.90;;;11.40;99.90;;;;;;5052324;28;20693;-71
2023/12/26 00:55:08;;;;;;;2.87;2.77;;;11.30;99.90;;;;;;5051729;28;20207;-71
2023/12/26 00:57:34;;;;;;;3.60;3.10;;;11.30;99.90;;;;;;5052262;28;20244;-72
2023/12/26 01:00:00;;;;;;;3.30;3.10;;;11.20;99.90;;;;;;5051772;28;20589;-72
2023/12/26 01:02:26;;;;;;;2.90;2.70;;;11.20;99.90;;;;;;5051447;28;20167;-71
2023/12/26 01:04:51;;;;;;;3.00;2.60;;;11.20;99.90;;;;;;5051055;28;20198;-71
2023/12/26 01:07:17;;;;;;;2.83;2.70;;;11.20;99.90;;;;;;5051910;28;20597;-71
2023/12/26 01:09:43;;;;;;;3.60;3.10;;;11.10;99.90;;;;;;5051678;28;20232;-70
2023/12/26 01:12:09;;;;;;;3.20;3.00;;;11.10;99.90;;;;;;5051411;28;20182;-72
2023/12/26 01:14:35;;;;;;;3.03;2.90;;;11.10;99.90;;;;;;5051165;28;20694;-72
2023/12/26 01:17:01;;;;;;;3.40;3.10;;;11.10;99.90;;;;;;5051620;28;20177;-71
2023/12/26 01:19:27;;;;;;;3.20;3.00;;;11.20;99.90;;;;;;5051660;28;20281;-71
2023/12/26 01:21:53;;;;;;;2.97;2.77;;;11.20;99.90;;;;;;5051439;28;20248;-72
2023/12/26 01:24:18;;;;;;;3.10;2.80;;;11.20;99.90;;;;;;5051429;28;20554;-71
2023/12/26 01:26:44;;;;;;;3.00;2.80;;;11.30;99.90;;;;;;5051603;28;20167;-71
2023/12/26 01:29:10;;;;;;;3.50;2.67;;;11.30;99.90;;;;;;5051738;28;20598;-71
2023/12/26 01:31:36;;;;;;;3.07;2.87;;;11.30;99.90;;;;;;5051390;28;20543;-72
2023/12/26 01:34:06;;;;;;;3.27;3.10;;;11.40;99.90;;;;;;5051394;28;20209;-71
2023/12/26 01:36:32;;;;;;;2.93;2.73;;;11.30;99.90;;;;;;5051181;28;20552;-71
2023/12/26 01:38:58;;;;;;;4.23;2.83;;;11.30;99.90;;;;;;5051742;28;20244;-74
2023/12/26 01:41:23;;;;;;;3.20;2.97;;;11.30;99.90;;;;;;5051167;28;20167;-72
2023/12/26 01:43:49;;;;;;;3.10;2.90;;;11.30;99.90;;;;;;5051433;28;20186;-72
2023/12/26 01:46:16;;;;;;;3.87;3.67;;;11.20;99.90;;;;;;5050976;28;20285;-72
2023/12/26 01:48:45;;;;;;;3.57;3.47;;;11.20;99.90;;;;;;5051206;28;20273;-72
2023/12/26 01:51:13;;;;;;;2.90;2.80;;;11.20;99.90;;;;;;5051327;28;20277;-71
2023/12/26 01:53:40;;;;;;;2.90;2.80;;;11.20;99.90;;;;;;5050883;28;20175;-72
2023/12/26 01:56:10;;;;;;;3.10;2.90;;;11.30;99.90;;;;;;5050935;28;20197;-71
2023/12/26 01:58:37;;;;;;;3.50;3.30;;;11.20;99.90;;;;;;5051048;28;20175;-71
2023/12/26 02:01:04;;;;;;;3.40;3.20;;;11.20;99.90;;;;;;5051212;28;20175;-71
2023/12/26 02:03:30;;;;;;;3.03;2.83;;;11.10;99.90;;;;;;5050724;28;20606;-71
2023/12/26 02:05:57;;;;;;;3.00;2.90;;;11.10;99.90;;;;;;5050745;28;20238;-71
2023/12/26 02:08:23;;;;;;;4.23;3.10;;;11.10;99.90;;;;;;5050955;28;20871;-72
2023/12/26 02:10:49;;;;;;;3.13;2.93;;;11.00;99.90;;;;;;5051233;28;20175;-72
2023/12/26 02:13:15;;;;;;;3.33;3.13;;;10.90;99.90;;;;;;5051135;28;20174;-72
2023/12/26 02:15:41;;;;;;;3.10;2.90;;;10.80;99.90;;;;;;5050976;28;20230;-71
2023/12/26 02:18:08;;;;;;;3.73;3.33;;;10.70;99.90;;;;;;5052803;28;20637;-72
2023/12/26 02:20:33;;;;;;;3.10;2.90;;;10.60;99.90;;;;;;5051334;28;20932;-71
2023/12/26 02:22:59;;;;;;;3.30;3.00;;;10.60;99.90;;;;;;5050877;28;20277;-71
2023/12/26 02:25:24;;;;;;;3.27;3.07;;;10.50;99.90;;;;;;5050390;28;20198;-71
2023/12/26 02:27:51;;;;;;;3.10;2.90;;;10.50;99.90;;;;;;5035645;28;20186;-72
2023/12/26 02:30:18;;;;;;;3.00;2.90;;;10.40;99.90;;;;;;5054633;28;20179;-71
2023/12/26 02:32:46;;;;;;;3.20;3.10;;;10.40;99.90;;;;;;5054597;28;20167;-72
2023/12/26 02:35:12;;;;;;;4.57;3.20;;;10.40;99.90;;;;;;5054071;28;20242;-71
2023/12/26 02:37:38;;;;;;;3.17;2.97;;;10.30;99.90;;;;;;5054518;28;20202;-71
2023/12/26 02:40:04;;;;;;;3.30;3.10;;;10.20;99.90;;;;;;5054464;28;20649;-73
2023/12/26 02:42:30;;;;;;;3.67;3.00;;;10.20;99.90;;;;;;5054286;28;20642;-71
2023/12/26 02:44:59;;;;;;;3.13;3.03;;;10.20;99.90;;;;;;5054171;28;20206;-71
2023/12/26 02:47:25;;;;;;;3.90;3.50;;;10.20;99.90;;;;;;5054242;28;20657;-70
2023/12/26 02:49:51;;;;;;;3.37;3.10;;;10.10;99.90;;;;;;5054235;28;20181;-71
2023/12/26 02:52:17;;;;;;;4.50;3.30;;;10.10;99.90;;;;;;5054092;28;20258;-72
2023/12/26 02:54:43;;;;;;;3.37;3.17;;;10.10;99.90;;;;;;5053838;28;20202;-71
2023/12/26 02:57:08;;;;;;;4.30;3.20;;;10.10;99.90;;;;;;5054213;28;20178;-71
2023/12/26 02:59:34;;;;;;;3.60;3.30;;;10.10;99.90;;;;;;5054051;28;20225;-72
2023/12/26 03:02:00;;;;;;;3.50;3.20;;;10.10;99.90;;;;;;5054218;28;20217;-71
2023/12/26 03:04:26;;;;;;;3.60;3.30;;;10.00;99.90;;;;;;5053197;28;20183;-71
2023/12/26 03:06:52;;;;;;;3.47;3.17;;;10.00;99.90;;;;;;5053483;28;20178;-71
2023/12/26 03:09:18;;;;;;;3.43;3.20;;;10.00;99.90;;;;;;5053849;28;20182;-71
2023/12/26 03:11:43;;;;;;;3.70;3.50;;;10.00;99.90;;;;;;5053738;28;20183;-71
2023/12/26 03:14:09;;;;;;;4.27;3.37;;;10.00;99.90;;;;;;5053783;28;20282;-71
2023/12/26 03:16:34;;;;;;;3.57;3.33;;;10.00;99.90;;;;;;5053511;28;20207;-72
2023/12/26 03:19:00;;;;;;;3.63;3.40;;;10.00;99.90;;;;;;5053892;28;20177;-72
2023/12/26 03:21:26;;;;;;;3.97;3.50;;;10.00;99.90;;;;;;5053738;28;20189;-72
2023/12/26 03:23:51;;;;;;;3.90;3.60;;;10.00;99.90;;;;;;5053651;28;20258;-72
2023/12/26 03:26:17;;;;;;;4.00;3.60;;;10.00;99.90;;;;;;5053257;28;20697;-72
2023/12/26 03:28:43;;;;;;;3.97;3.60;;;10.00;99.90;;;;;;5053673;28;20174;-71
2023/12/26 03:31:08;;;;;;;3.70;3.47;;;10.00;99.90;;;;;;5053700;28;20175;-71
2023/12/26 03:33:35;;;;;;;3.80;3.50;;;10.00;99.90;;;;;;5053214;28;20186;-72
2023/12/26 03:36:02;;;;;;;3.40;3.20;;;9.90;99.90;;;;;;5053405;28;20200;-71
2023/12/26 03:38:28;;;;;;;3.60;3.40;;;10.00;99.90;;;;;;5053814;28;20260;-72
2023/12/26 03:40:53;;;;;;;4.20;3.80;;;9.90;99.90;;;;;;5055241;28;20186;-72
2023/12/26 03:43:19;;;;;;;3.93;3.60;;;9.90;99.90;;;;;;5054140;28;20178;-72
2023/12/26 03:45:46;;;;;;;3.73;3.47;;;9.90;99.90;;;;;;5053127;28;20290;-72
2023/12/26 03:48:12;;;;;;;4.23;3.87;;;9.90;99.90;;;;;;5053321;28;20268;-72
2023/12/26 03:50:38;;;;;;;4.00;3.63;;;9.90;99.90;;;;;;5053115;28;20187;-72
2023/12/26 03:53:04;;;;;;;5.50;3.90;;;9.90;99.90;;;;;;5052867;28;20669;-73
2023/12/26 03:55:29;;;;;;;4.80;4.30;;;9.90;99.90;;;;;;5052697;28;20214;-72
2023/12/26 03:57:55;;;;;;;4.50;3.90;;;10.00;99.90;;;;;;5053110;28;20698;-71
2023/12/26 04:00:21;;;;;;;4.13;3.80;;;10.00;99.90;;;;;;5052722;28;20178;-72
2023/12/26 04:02:47;;;;;;;4.20;3.80;;;10.00;99.90;;;;;;5034931;28;20543;-71
2023/12/26 04:05:13;;;;;;;4.00;3.70;;;10.00;99.90;;;;;;5052365;28;20569;-73
2023/12/26 04:07:39;;;;;;;4.00;3.67;;;10.00;99.90;;;;;;5052258;28;20190;-72
2023/12/26 04:10:05;;;;;;;4.27;3.70;;;10.10;99.90;;;;;;5052751;28;20183;-73
2023/12/26 04:12:32;;;;;;;7.10;4.20;;;10.10;99.90;;;;;;5052491;28;20171;-72
2023/12/26 04:14:57;;;;;;;4.83;4.20;;;10.10;99.90;;;;;;5052486;28;20234;-72
2023/12/26 04:17:23;;;;;;;4.63;4.23;;;10.10;99.90;;;;;;5052589;28;20268;-72
2023/12/26 04:19:49;;;;;;;4.17;3.70;;;10.10;99.90;;;;;;5052575;28;20545;-73
2023/12/26 04:22:14;;;;;;;4.27;3.87;;;10.10;99.90;;;;;;5052259;28;20179;-72
2023/12/26 04:24:40;;;;;;;7.47;4.30;;;10.10;99.90;;;;;;5052485;28;20202;-73
2023/12/26 04:27:06;;;;;;;4.87;4.30;;;10.10;99.90;;;;;;5052435;28;20181;-72
2023/12/26 04:29:32;;;;;;;3.97;3.53;;;10.10;99.90;;;;;;5052498;28;20331;-72
2023/12/26 04:31:58;;;;;;;8.20;4.20;;;10.20;99.90;;;;;;5052320;28;20207;-72
2023/12/26 04:34:24;;;;;;;4.40;3.87;;;10.20;99.90;;;;;;5051745;28;20199;-73
2023/12/26 04:36:49;;;;;;;5.80;3.80;;;10.20;99.90;;;;;;5052257;28;20174;-73
2023/12/26 04:39:15;;;;;;;4.13;3.93;;;10.20;99.90;;;;;;5052248;28;20185;-72
2023/12/26 04:41:40;;;;;;;5.07;4.10;;;10.10;99.90;;;;;;5052014;28;20525;-72
2023/12/26 04:44:06;;;;;;;5.00;4.40;;;10.10;99.90;;;;;;5052204;28;20237;-72
2023/12/26 04:46:32;;;;;;;7.03;3.90;;;10.10;99.90;;;;;;5052169;28;20190;-72
2023/12/26 04:48:57;;;;;;;4.60;4.20;;;10.20;99.90;;;;;;5051814;28;20190;-73
2023/12/26 04:51:23;;;;;;;6.77;4.40;;;10.20;99.90;;;;;;5051594;28;20179;-72
2023/12/26 04:53:51;;;;;;;7.30;4.40;;;10.20;99.90;;;;;;5051904;28;20258;-72
2023/12/26 04:56:18;;;;;;;6.10;4.30;;;10.20;99.90;;;;;;5051785;28;20488;-72
2023/12/26 04:58:49;;;;;;;4.27;3.93;;;10.20;99.90;;;;;;5052193;28;20201;-72
2023/12/26 05:01:16;;;;;;;4.77;4.07;;;10.30;99.90;;;;;;5053003;28;20246;-73
2023/12/26 05:03:42;;;;;;;5.93;4.90;;;10.20;99.90;;;;;;5055324;28;20538;-72
2023/12/26 05:06:08;;;;;;;6.80;5.43;;;10.20;99.90;;;;;;5053075;28;20236;-72
2023/12/26 05:08:36;;;;;;;7.07;4.87;;;10.10;99.90;;;;;;5051806;28;20262;-73
2023/12/26 05:11:02;;;;;;;4.63;4.33;;;10.10;99.90;;;;;;5051789;28;20171;-72
2023/12/26 05:13:28;;;;;;;5.10;4.60;;;10.10;99.90;;;;;;5033773;28;20643;-72
2023/12/26 05:15:54;;;;;;;5.80;5.20;;;10.10;99.90;;;;;;5051355;28;20264;-72
2023/12/26 05:18:19;;;;;;;6.10;5.60;;;10.10;99.90;;;;;;5051663;28;20257;-72
2023/12/26 05:20:45;;;;;;;4.23;3.93;;;10.20;99.90;;;;;;5051414;28;20177;-73
2023/12/26 05:23:11;;;;;;;4.43;4.13;;;10.10;99.90;;;;;;5051544;28;20659;-72
2023/12/26 05:25:36;;;;;;;6.73;4.10;;;10.20;99.90;;;;;;5051340;28;20209;-71
2023/12/26 05:28:02;;;;;;;4.90;4.50;;;10.20;99.90;;;;;;5051354;28;20182;-72
2023/12/26 05:30:28;;;;;;;6.73;4.00;;;10.20;99.90;;;;;;5051355;28;20179;-72
2023/12/26 05:32:53;;;;;;;6.20;4.07;;;10.20;99.90;;;;;;5051834;28;20258;-72
2023/12/26 05:35:19;;;;;;;5.10;4.63;;;10.20;99.90;;;;;;5051468;28;20206;-72
2023/12/26 05:37:45;;;;;;;5.60;4.30;;;10.20;99.90;;;;;;5051709;28;20178;-72
2023/12/26 05:40:10;;;;;;;6.23;4.83;;;10.20;99.90;;;;;;5051823;28;20166;-72
2023/12/26 05:42:36;;;;;;;8.00;4.00;;;10.20;99.90;;;;;;5051404;28;20167;-71
2023/12/26 05:45:03;;;;;;;6.67;4.37;;;10.20;99.90;;;;;;5051046;28;20191;-71
2023/12/26 05:47:29;;;;;;;4.37;4.00;;;10.20;99.90;;;;;;5051564;28;20539;-72
2023/12/26 05:49:57;;;;;;;4.97;3.43;;;10.20;99.90;;;;;;5051396;28;20265;-72
2023/12/26 05:52:24;;;;;;;7.73;4.07;;;10.30;99.90;;;;;;5051529;28;20170;-73
2023/12/26 05:54:49;;;;;;;3.87;3.67;;;10.30;99.90;;;;;;5051121;28;20207;-73
2023/12/26 05:57:15;;;;;;;9.13;4.90;;;10.30;99.90;;;;;;5051261;28;20584;-72
2023/12/26 05:59:40;;;;;;;6.50;3.80;;;10.30;99.90;;;;;;5051187;28;20171;-72
2023/12/26 06:02:06;;;;;;;4.57;3.97;;;10.30;99.90;;;;;;5052894;28;20216;-72
2023/12/26 06:04:32;;;;;;;4.03;3.80;;;10.30;99.90;;;;;;5054584;28;20198;-72
2023/12/26 06:06:57;;;;;;;4.53;4.17;;;10.30;99.90;;;;;;5054892;28;20179;-72
2023/12/26 06:09:23;;;;;;;4.20;3.80;;;10.30;99.90;;;;;;5054953;28;20182;-71
2023/12/26 06:11:48;;;;;;;4.40;4.00;;;10.30;99.90;;;;;;5054948;28;20229;-72
2023/12/26 06:14:14;;;;;;;4.80;3.60;;;10.30;99.90;;;;;;5054612;28;20199;-72
2023/12/26 06:16:39;;;;;;;5.73;3.83;;;10.30;99.90;;;;;;5055025;28;20189;-71
2023/12/26 06:19:05;;;;;;;4.23;3.57;;;10.30;99.90;;;;;;5055329;28;20182;-71
2023/12/26 06:21:31;;;;;;;4.60;4.17;;;10.30;99.90;;;;;;5055037;28;20194;-71
2023/12/26 06:23:56;;;;;;;3.77;3.47;;;10.30;99.90;;;;;;5055287;28;20187;-71
2023/12/26 06:26:23;;;;;;;4.23;3.80;;;10.30;99.90;;;;;;5055829;28;20205;-71
2023/12/26 06:28:48;;;;;;;5.80;3.73;;;10.30;99.90;;;;;;5055430;28;20171;-72
2023/12/26 06:31:14;;;;;;;4.37;3.60;;;10.30;99.90;;;;;;5036883;28;20175;-71
2023/12/26 06:33:40;;;;;;;4.93;3.80;;;10.30;99.90;;;;;;5054697;28;20175;-71
2023/12/26 06:36:06;;;;;;;3.97;3.67;;;10.30;99.90;;;;;;5054246;28;20559;-71
2023/12/26 06:38:32;;;;;;;4.40;3.90;;;10.30;99.90;;;;;;5054608;28;20209;-72
2023/12/26 06:40:57;;;;;;;4.20;3.90;;;10.30;99.90;;;;;;5054593;28;20202;-73
2023/12/26 06:43:23;;;;;;;5.03;3.73;;;10.30;99.90;;;;;;5054448;28;20175;-71
2023/12/26 06:45:49;;;;;;;3.97;3.67;;;10.30;99.90;;;;;;5054290;28;20274;-72
2023/12/26 06:48:14;;;;;;;4.37;4.03;;;10.30;99.90;;;;;;5054379;28;20543;-71
2023/12/26 06:50:40;;;;;;;4.03;3.80;;;10.30;99.90;;;;;;5054459;28;20617;-72
2023/12/26 06:53:05;;;;;;;4.30;3.90;;;10.30;99.90;;;;;;5054172;28;20189;-72
2023/12/26 06:55:31;;;;;;;3.90;3.50;;;10.40;99.90;;;;;;5053684;28;20225;-72
2023/12/26 06:57:57;;;;;;;4.80;3.83;;;10.40;99.90;;;;;;5036070;28;20175;-72
2023/12/26 07:00:22;;;;;;;4.50;3.90;;;10.40;99.90;;;;;;5054182;28;20221;-73
2023/12/26 07:02:48;;;;;;;4.27;3.90;;;10.40;99.90;;;;;;5053967;28;20356;-71
2023/12/26 07:05:13;;;;;;;3.83;3.63;;;10.40;99.90;;;;;;5053548;28;20198;-72
2023/12/26 07:07:39;;;;;;;5.30;3.90;;;10.40;99.90;;;;;;5053595;28;20204;-71
2023/12/26 07:10:05;;;;;;;3.63;3.43;;;10.40;99.90;;;;;;5054449;28;20174;-72
2023/12/26 07:12:31;;;;;;;5.10;3.50;;;10.40;99.90;;;;;;5053186;28;20681;-71
2023/12/26 07:14:56;;;;;;;4.00;3.70;;;10.40;99.90;;;;;;5053536;28;20325;-72
2023/12/26 07:17:23;;;;;;;7.20;4.13;;;10.30;99.90;;;;;;5053668;28;20171;-71
2023/12/26 07:19:49;;;;;;;4.97;3.90;;;10.30;99.90;;;;;;5053685;28;20167;-72
2023/12/26 07:22:14;;;;;;;6.50;3.73;;;10.30;99.90;;;;;;5053429;28;20209;-72
2023/12/26 07:24:40;;;;;;;4.30;3.90;;;10.30;99.90;;;;;;5053301;28;20339;-72
2023/12/26 07:27:05;;;;;;;4.10;3.70;;;10.30;99.90;;;;;;5054008;28;20183;-71
2023/12/26 07:29:31;;;;;;;6.57;3.90;;;10.30;99.90;;;;;;5053514;28;20251;-72
2023/12/26 07:31:57;;;;;;;4.20;3.90;;;10.40;99.90;;;;;;5053494;28;20183;-75
2023/12/26 07:34:22;;;;;;;8.07;4.47;;;10.40;99.90;;;;;;5053084;28;20230;-72
2023/12/26 07:36:48;;;;;;;4.40;4.00;;;10.40;99.90;;;;;;5053392;28;20181;-72
2023/12/26 07:39:13;;;;;;;4.70;4.20;;;10.50;99.90;;;;;;5053458;28;20202;-72
2023/12/26 07:41:39;;;;;;;4.30;4.00;;;10.50;99.90;;;;;;5053515;28;20228;-72
2023/12/26 07:44:05;;;;;;;4.70;4.20;;;10.50;99.90;;;;;;5053916;28;20178;-72
2023/12/26 07:46:30;;;;;;;8.40;4.27;;;10.50;99.90;;;;;;5054081;28;20198;-72
2023/12/26 07:48:56;;;;;;;4.97;3.77;;;10.50;99.90;;;;;;5054682;28;20186;-71
2023/12/26 07:51:24;;;;;;;5.13;4.20;;;10.60;99.90;;;;;;5054193;28;20206;-71
2023/12/26 07:53:49;;;;;;;6.50;4.07;;;10.60;99.90;;;;;;5053076;28;20174;-73
2023/12/26 07:56:15;;;;;;;6.80;4.00;;;10.60;99.90;;;;;;5052948;28;20271;-72
2023/12/26 07:58:40;;;;;;;4.10;3.80;;;10.60;99.90;;;;;;5052934;28;20175;-71
2023/12/26 08:01:06;;;;;;;6.00;4.70;;;10.60;99.90;;;;;;5053128;28;20174;-71
2023/12/26 08:03:32;;;;;;;4.57;4.03;;;10.60;99.90;;;;;;5052748;28;20178;-71
2023/12/26 08:05:58;;;;;;;4.77;3.70;;;10.70;99.90;;;;;;5052368;28;20202;-71
2023/12/26 08:08:23;;;;;;;5.50;4.10;;;10.70;99.90;;;;;;5052802;28;20183;-71
2023/12/26 08:10:49;;;;;;;7.20;4.30;;;10.70;99.90;;;;;;5034894;28;20191;-71
2023/12/26 08:13:14;;;;;;;4.50;3.80;;;10.70;99.90;;;;;;5052795;28;20228;-71
2023/12/26 08:15:40;;;;;;;9.43;3.97;;;10.70;99.90;;;;;;5052480;28;20798;-71
2023/12/26 08:18:06;;;;;;;6.83;3.87;;;10.60;99.90;;;;;;5052779;28;20202;-71
2023/12/26 08:20:33;;;;;;;4.40;4.00;;;10.60;99.90;;;;;;5052585;28;20638;-72
2023/12/26 08:23:00;;;;;;;6.90;3.83;;;10.50;99.90;;;;;;5052435;28;20190;-71
2023/12/26 08:25:25;;;;;;;7.27;3.80;;;10.50;99.90;;;;;;5051213;28;20199;-72
2023/12/26 08:27:51;;;;;;;8.90;4.30;;;10.40;99.90;;;;;;5052596;28;20619;-72
2023/12/26 08:30:16;;;;;;;6.53;5.13;;;10.40;99.90;;;;;;5052398;28;20179;-71
2023/12/26 08:32:42;;;;;;;4.53;4.10;;;10.40;99.90;;;;;;5052321;28;20174;-71
2023/12/26 08:35:08;;;;;;;5.23;4.13;;;10.40;99.90;;;;;;5051936;28;20237;-71
2023/12/26 08:37:34;;;;;;;3.97;3.63;;;10.50;99.90;;;;;;5052238;28;20167;-72
2023/12/26 08:39:59;;;;;;;5.70;4.23;;;10.50;99.90;;;;;;5052397;28;20250;-71
2023/12/26 08:42:25;;;;;;;4.83;4.37;;;10.50;99.90;;;;;;5051961;28;20304;-71
2023/12/26 08:44:50;;;;;;;10.33;4.30;;;10.50;99.90;;;;;;5052059;28;20621;-72
2023/12/26 08:47:16;;;;;;;5.70;3.80;;;10.50;99.90;;;;;;5052110;28;20179;-72
2023/12/26 08:49:41;;;;;;;4.57;3.93;;;10.50;99.90;;;;;;5052072;28;20520;-72
2023/12/26 08:52:09;;;;;;;8.10;4.23;;;10.40;99.90;;;;;;5052217;28;20206;-72
2023/12/26 08:54:34;;;;;;;5.93;4.40;;;10.50;99.90;;;;;;5051528;28;20207;-72
2023/12/26 08:57:00;;;;;;;4.80;4.27;;;10.50;99.90;;;;;;5052079;28;20170;-72
2023/12/26 08:59:26;;;;;;;5.27;4.00;;;10.60;99.90;;;;;;5051719;28;20186;-72
2023/12/26 09:01:52;;;;;;;4.93;4.00;;;10.60;99.90;;;;;;5051974;28;20167;-71
2023/12/26 09:04:18;;;;;;;5.60;4.13;;;10.70;99.90;;;;;;5051280;28;20525;-72
2023/12/26 09:06:43;;;;;;;9.00;4.13;;;10.70;99.90;;;;;;5051824;28;20181;-72
2023/12/26 09:09:09;;;;;;;6.13;3.90;;;10.80;99.90;;;;;;5052283;28;20654;-72
2023/12/26 09:11:35;;;;;;;13.17;4.60;;;10.80;99.90;;;;;;5053139;28;20209;-72
2023/12/26 09:14:00;;;;;;;5.33;3.80;;;10.80;99.90;;;;;;5052890;28;20570;-71
2023/12/26 09:16:26;;;;;;;8.03;4.00;;;10.90;99.90;;;;;;5051127;28;20279;-72
2023/12/26 09:18:51;;;;;;;7.00;4.00;;;10.90;99.90;;;;;;5051582;28;20646;-71
2023/12/26 09:21:17;;;;;;;6.30;4.03;;;10.90;99.90;;;;;;5051353;28;20190;-71
2023/12/26 09:23:43;;;;;;;8.43;4.40;;;10.90;99.90;;;;;;5051454;28;20226;-72
2023/12/26 09:26:08;;;;;;;7.00;4.17;;;10.80;99.90;;;;;;5051115;28;20213;-72
2023/12/26 09:28:34;;;;;;;5.67;4.40;;;10.80;99.90;;;;;;5051138;28;20179;-72
2023/12/26 09:30:59;;;;;;;5.70;4.97;;;10.80;99.90;;;;;;5051486;28;20171;-72
2023/12/26 09:33:25;;;;;;;8.47;5.10;;;10.70;99.90;;;;;;5051399;28;20198;-72
2023/12/26 09:35:51;;;;;;;6.50;4.20;;;10.80;99.90;;;;;;5050887;28;20650;-72
2023/12/26 09:38:17;;;;;;;9.00;4.50;;;10.80;99.90;;;;;;5051356;28;20661;-71
2023/12/26 09:40:42;;;;;;;8.70;3.90;;;10.90;99.90;;;;;;5051215;28;20181;-73
2023/12/26 09:43:08;;;;;;;6.23;4.33;;;11.00;99.90;;;;;;5051143;28;20205;-73
2023/12/26 09:45:34;;;;;;;5.37;4.13;;;11.10;99.90;;;;;;5051119;28;20194;-72
2023/12/26 09:48:00;;;;;;;8.23;4.00;;;11.20;99.90;;;;;;5051343;28;20177;-73
2023/12/26 09:50:26;;;;;;;33.27;19.63;;;11.30;99.90;;;;;;5050829;28;20349;-71
2023/12/26 09:52:58;;;;;;;9.03;4.57;;;11.40;99.90;;;;;;5051004;28;20199;-71
2023/12/26 09:55:26;;;;;;;8.70;4.87;;;11.50;99.90;;;;;;5050834;28;20206;-71
2023/12/26 09:57:51;;;;;;;16.73;10.73;;;11.50;99.90;;;;;;5050935;28;20638;-71
2023/12/26 10:00:17;;;;;;;20.33;16.43;;;11.60;99.90;;;;;;5050635;28;20173;-71
2023/12/26 10:02:43;;;;;;;6.17;5.40;;;11.60;99.90;;;;;;5050693;28;20216;-71
2023/12/26 10:05:09;;;;;;;9.33;5.80;;;11.50;99.90;;;;;;5050091;28;20194;-70
2023/12/26 10:07:35;;;;;;;5.87;5.33;;;11.50;99.90;;;;;;5032906;28;20178;-72
2023/12/26 10:10:01;;;;;;;4.77;3.90;;;11.40;99.90;;;;;;5050840;28;20651;-71
2023/12/26 10:12:29;;;;;;;6.80;4.23;;;11.30;99.90;;;;;;5050629;28;20194;-70
2023/12/26 10:14:58;;;;;;;8.40;3.97;;;11.20;99.90;;;;;;5050395;28;20214;-71
2023/12/26 10:17:25;;;;;;;7.03;3.77;;;11.30;99.90;;;;;;5051049;28;20182;-71
2023/12/26 10:19:55;;;;;;;8.37;4.13;;;11.30;99.90;;;;;;5050745;28;20242;-71
2023/12/26 10:22:20;;;;;;;8.40;4.17;;;11.30;99.90;;;;;;5050322;28;20210;-72
2023/12/26 10:24:47;;;;;;;7.23;3.80;;;11.40;99.90;;;;;;5050521;28;20709;-71
2023/12/26 10:27:13;;;;;;;6.00;3.87;;;11.50;99.90;;;;;;5050895;28;20175;-71
2023/12/26 10:29:39;;;;;;;5.90;3.83;;;11.50;99.90;;;;;;5050625;28;20586;-71
2023/12/26 10:32:05;;;;;;;5.43;4.13;;;11.50;99.90;;;;;;5037493;28;20258;-71
2023/12/26 10:34:31;;;;;;;10.67;6.33;;;11.60;99.90;;;;;;5046542;28;20594;-71
2023/12/26 10:36:56;;;;;;;53.70;42.93;;;11.60;99.90;;;;;;5046831;28;20316;-71
2023/12/26 10:39:23;;;;;;;9.47;6.67;;;11.60;99.90;;;;;;5050572;28;20160;-70
2023/12/26 10:41:49;;;;;;;8.33;5.03;;;11.60;99.90;;;;;;5050551;28;20262;-72
2023/12/26 10:44:16;;;;;;;9.33;7.10;;;11.60;99.90;;;;;;5033384;28;20266;-71
2023/12/26 10:46:43;;;;;;;5.53;4.27;;;11.70;99.90;;;;;;5030472;28;20176;-72
2023/12/26 10:49:23;;;;;;;7.70;4.53;;;11.80;99.90;;;;;;5050559;28;20236;-74
2023/12/26 10:51:51;;;;;;;9.17;3.97;;;11.90;99.90;;;;;;5056945;28;20266;-73
2023/12/26 10:54:23;;;;;;;5.27;4.03;;;11.80;99.90;;;;;;5056741;28;20257;-72
2023/12/26 10:56:49;;;;;;;5.03;3.63;;;11.80;99.90;;;;;;5038445;28;20174;-72
2023/12/26 10:59:16;;;;;;;9.47;3.50;;;11.80;99.90;;;;;;5055781;28;20253;-72
2023/12/26 11:01:42;;;;;;;6.17;3.97;;;11.80;99.90;;;;;;5053386;28;20699;-72
2023/12/26 11:04:08;;;;;;;10.07;4.63;;;11.70;99.90;;;;;;5036393;28;20175;-72
2023/12/26 11:06:34;;;;;;;9.13;4.73;;;11.50;99.90;;;;;;5033328;28;20651;-72
2023/12/26 11:09:00;;;;;;;6.00;3.90;;;11.40;99.90;;;;;;5033925;28;20246;-72
2023/12/26 11:11:25;;;;;;;7.70;3.93;;;11.30;99.90;;;;;;5033847;28;20180;-72
2023/12/26 11:13:51;;;;;;;6.43;3.80;;;11.20;99.90;;;;;;5034090;28;20665;-72
2023/12/26 11:16:18;;;;;;;10.23;3.80;;;11.00;84.70;;;;;;5042920;28;20274;-72
2023/12/26 11:18:45;;;;;;;12.33;3.67;;;10.90;91.00;;;;;;5034373;28;20521;-72
2023/12/26 11:21:11;;;;;;;7.70;3.90;;;10.80;43.50;;;;;;5053500;28;20270;-72
2023/12/26 11:23:37;;;;;;;6.93;3.60;;;10.70;40.70;;;;;;5035516;28;20187;-72
2023/12/26 11:26:04;;;;;;;7.10;3.77;;;10.70;78.70;;;;;;5053093;28;20203;-72
2023/12/26 11:28:29;;;;;;;8.10;4.13;;;10.80;50.30;;;;;;5053758;28;20166;-72
2023/12/26 11:30:58;;;;;;;7.70;4.63;;;10.90;83.80;;;;;;5053890;28;20651;-72
2023/12/26 11:33:24;;;;;;;7.97;4.03;;;11.10;84.30;;;;;;5037846;28;20179;-72
2023/12/26 11:35:50;;;;;;;9.23;3.87;;;11.30;87.30;;;;;;5033562;28;20203;-72
2023/12/26 11:38:17;;;;;;;8.83;3.50;;;11.50;71.70;;;;;;5045672;28;20190;-72
2023/12/26 11:40:44;;;;;;;7.40;3.77;;;11.40;31.90;;;;;;5053380;28;20375;-72
2023/12/26 11:43:11;;;;;;;6.30;3.50;;;11.60;29.60;;;;;;5053255;28;20669;-72
2023/12/26 11:45:37;;;;;;;9.30;3.57;;;11.80;33.70;;;;;;5043751;28;20211;-72
2023/12/26 11:48:02;;;;;;;5.43;3.70;;;11.90;22.20;;;;;;5033409;28;20302;-72
2023/12/26 11:50:28;;;;;;;10.00;3.50;;;11.80;1.00;;;;;;5032915;28;20233;-72
2023/12/26 11:52:54;;;;;;;5.03;3.70;;;11.80;2.40;;;;;;5033499;28;20207;-72
2023/12/26 11:55:19;;;;;;;4.00;3.30;;;11.90;1.00;;;;;;5033930;28;20225;-72
2023/12/26 11:57:45;;;;;;;11.07;4.00;;;12.00;1.00;;;;;;5038121;28;20179;-72
2023/12/26 12:00:10;;;;;;;5.57;3.97;;;12.20;1.00;;;;;;5040823;28;20619;-71
2023/12/26 12:02:36;;;;;;;8.60;4.27;;;12.30;1.00;;;;;;5052486;28;20179;-73
2023/12/26 12:05:05;;;;;;;7.50;3.67;;;12.40;1.00;;;;;;5052525;28;20560;-72
2023/12/26 12:07:31;;;;;;;5.90;3.73;;;12.50;1.00;;;;;;5053403;28;20752;-74
2023/12/26 12:10:17;;;;;;;7.97;4.50;;;12.50;1.00;;;;;;5053063;28;20187;-73
2023/12/26 12:12:42;;;;;;;13.30;6.93;;;12.50;1.00;;;;;;5048116;28;20195;-74
2023/12/26 12:15:10;;;;;;;9.07;5.57;;;12.40;1.00;;;;;;5032511;28;20199;-74
2023/12/26 12:17:45;;;;;;;8.13;5.00;;;12.30;1.00;;;;;;5032587;28;20167;-73
2023/12/26 12:20:17;;;;;;;7.10;4.00;;;12.20;1.00;;;;;;5032333;28;20190;-73
2023/12/26 12:22:42;;;;;;;6.07;3.50;;;12.20;1.00;;;;;;5032470;28;20187;-73
2023/12/26 12:25:16;;;;;;;7.30;3.47;;;11.90;1.00;;;;;;5032272;28;20216;-73
2023/12/26 12:27:41;;;;;;;6.83;3.77;;;11.80;1.00;;;;;;5033658;28;20641;-75
2023/12/26 12:30:07;;;;;;;5.90;3.53;;;11.80;1.00;;;;;;5032651;28;20211;-74
2023/12/26 12:32:35;;;;;;;10.43;4.57;;;11.70;1.00;;;;;;5031973;28;20265;-74
2023/12/26 12:35:18;;;;;;;9.83;8.93;;;11.60;1.00;;;;;;5014129;28;20776;-73
2023/12/26 12:37:47;;;;;;;10.37;4.30;;;11.40;1.00;;;;;;5026779;28;20178;-72
2023/12/26 12:40:13;;;;;;;11.70;4.37;;;11.40;1.00;;;;;;5049561;28;20654;-73
2023/12/26 12:42:38;;;;;;;6.20;4.07;;;11.30;1.00;;;;;;5014603;28;20179;-73